sensor_id;sensor_type;location;lat;lon;timestamp;P1;durP1;ratioP1;P2;durP2;ratioP2
769;SDS011;368;48.698;9.116;2023-03-18T00:00:11;3.23;;;2.23;;
769;SDS011;368;48.698;9.116;2023-03-18T00:02:40;3.40;;;2.53;;
769;SDS011;368;48.698;9.116;2023-03-18T00:05:08;3.63;;;2.43;;
769;SDS011;368;48.698;9.116;2023-03-18T00:07:35;3.67;;;2.87;;
769;SDS011;368;48.698;9.116;2023-03-18T00:10:03;4.57;;;2.53;;
769;SDS011;368;48.698;9.116;2023-03-18T00:12:30;3.60;;;2.63;;
769;SDS011;368;48.698;9.116;2023-03-18T00:14:57;4.13;;;2.30;;
769;SDS011;368;48.698;9.116;2023-03-18T00:17:26;3.87;;;2.57;;
769;SDS011;368;48.698;9.116;2023-03-18T00:19:52;4.10;;;2.57;;
769;SDS011;368;48.698;9.116;2023-03-18T00:22:19;5.07;;;2.83;;
769;SDS011;368;48.698;9.116;2023-03-18T00:24:46;4.60;;;2.77;;
769;SDS011;368;48.698;9.116;2023-03-18T00:27:13;3.00;;;2.40;;
769;SDS011;368;48.698;9.116;2023-03-18T00:29:40;3.40;;;2.70;;
769;SDS011;368;48.698;9.116;2023-03-18T00:32:07;3.13;;;2.43;;
769;SDS011;368;48.698;9.116;2023-03-18T00:34:36;2.97;;;2.30;;
769;SDS011;368;48.698;9.116;2023-03-18T00:37:03;2.93;;;2.47;;
769;SDS011;368;48.698;9.116;2023-03-18T00:39:30;3.03;;;2.77;;
769;SDS011;368;48.698;9.116;2023-03-18T00:41:58;2.83;;;2.23;;
769;SDS011;368;48.698;9.116;2023-03-18T00:44:34;4.80;;;2.40;;
769;SDS011;368;48.698;9.116;2023-03-18T00:47:02;2.60;;;2.20;;
769;SDS011;368;48.698;9.116;2023-03-18T00:49:29;3.37;;;2.30;;
769;SDS011;368;48.698;9.116;2023-03-18T00:51:58;4.03;;;2.00;;
769;SDS011;368;48.698;9.116;2023-03-18T00:54:25;2.20;;;1.77;;
769;SDS011;368;48.698;9.116;2023-03-18T00:56:52;3.00;;;2.00;;
769;SDS011;368;48.698;9.116;2023-03-18T00:59:20;3.30;;;2.30;;
769;SDS011;368;48.698;9.116;2023-03-18T01:01:48;2.27;;;1.80;;
769;SDS011;368;48.698;9.116;2023-03-18T01:04:14;2.60;;;1.87;;
769;SDS011;368;48.698;9.116;2023-03-18T01:06:41;4.10;;;1.97;;
769;SDS011;368;48.698;9.116;2023-03-18T01:09:10;2.73;;;2.50;;
769;SDS011;368;48.698;9.116;2023-03-18T01:11:38;2.67;;;2.07;;
769;SDS011;368;48.698;9.116;2023-03-18T01:14:05;4.03;;;2.20;;
769;SDS011;368;48.698;9.116;2023-03-18T01:16:31;4.40;;;2.20;;
769;SDS011;368;48.698;9.116;2023-03-18T01:18:58;2.30;;;2.00;;
769;SDS011;368;48.698;9.116;2023-03-18T01:21:25;2.73;;;1.93;;
769;SDS011;368;48.698;9.116;2023-03-18T01:23:52;2.17;;;1.97;;
769;SDS011;368;48.698;9.116;2023-03-18T01:26:20;3.03;;;1.80;;
769;SDS011;368;48.698;9.116;2023-03-18T01:28:47;2.60;;;1.90;;
769;SDS011;368;48.698;9.116;2023-03-18T01:31:14;3.37;;;1.77;;
769;SDS011;368;48.698;9.116;2023-03-18T01:33:41;2.73;;;1.60;;
769;SDS011;368;48.698;9.116;2023-03-18T01:36:08;2.17;;;1.50;;
769;SDS011;368;48.698;9.116;2023-03-18T01:38:35;2.37;;;1.57;;
769;SDS011;368;48.698;9.116;2023-03-18T01:41:03;3.63;;;1.87;;
769;SDS011;368;48.698;9.116;2023-03-18T01:43:32;2.20;;;1.63;;
769;SDS011;368;48.698;9.116;2023-03-18T01:48:55;2.27;;;1.70;;
769;SDS011;368;48.698;9.116;2023-03-18T01:51:23;3.40;;;2.17;;
769;SDS011;368;48.698;9.116;2023-03-18T01:53:53;1.60;;;1.50;;
769;SDS011;368;48.698;9.116;2023-03-18T01:56:24;1.80;;;1.47;;
769;SDS011;368;48.698;9.116;2023-03-18T01:58:53;2.30;;;1.43;;
769;SDS011;368;48.698;9.116;2023-03-18T02:01:23;4.60;;;1.47;;
769;SDS011;368;48.698;9.116;2023-03-18T02:04:01;2.70;;;1.87;;
769;SDS011;368;48.698;9.116;2023-03-18T02:06:30;3.30;;;1.90;;
769;SDS011;368;48.698;9.116;2023-03-18T02:08:57;2.83;;;1.20;;
769;SDS011;368;48.698;9.116;2023-03-18T02:11:25;3.53;;;1.47;;
769;SDS011;368;48.698;9.116;2023-03-18T02:13:54;2.20;;;1.73;;
769;SDS011;368;48.698;9.116;2023-03-18T02:16:22;2.20;;;2.00;;
769;SDS011;368;48.698;9.116;2023-03-18T02:18:53;2.70;;;1.97;;
769;SDS011;368;48.698;9.116;2023-03-18T02:21:27;1.80;;;1.70;;
769;SDS011;368;48.698;9.116;2023-03-18T02:24:04;4.23;;;1.77;;
769;SDS011;368;48.698;9.116;2023-03-18T02:26:36;2.00;;;1.80;;
769;SDS011;368;48.698;9.116;2023-03-18T02:29:11;1.80;;;1.43;;
769;SDS011;368;48.698;9.116;2023-03-18T02:31:42;3.47;;;2.13;;
769;SDS011;368;48.698;9.116;2023-03-18T02:34:10;2.23;;;1.90;;
769;SDS011;368;48.698;9.116;2023-03-18T02:36:39;3.67;;;1.77;;
769;SDS011;368;48.698;9.116;2023-03-18T02:39:06;3.00;;;1.60;;
769;SDS011;368;48.698;9.116;2023-03-18T02:41:37;4.10;;;1.60;;
769;SDS011;368;48.698;9.116;2023-03-18T02:44:03;3.80;;;1.70;;
769;SDS011;368;48.698;9.116;2023-03-18T02:46:33;3.17;;;1.90;;
769;SDS011;368;48.698;9.116;2023-03-18T02:49:08;2.03;;;1.50;;
769;SDS011;368;48.698;9.116;2023-03-18T02:51:36;1.80;;;1.70;;
769;SDS011;368;48.698;9.116;2023-03-18T02:54:04;2.53;;;1.80;;
769;SDS011;368;48.698;9.116;2023-03-18T02:56:34;4.63;;;2.50;;
769;SDS011;368;48.698;9.116;2023-03-18T02:59:01;2.17;;;1.43;;
769;SDS011;368;48.698;9.116;2023-03-18T03:01:28;1.83;;;1.70;;
769;SDS011;368;48.698;9.116;2023-03-18T03:03:58;3.50;;;1.70;;
769;SDS011;368;48.698;9.116;2023-03-18T03:06:25;2.07;;;1.50;;
769;SDS011;368;48.698;9.116;2023-03-18T03:08:52;2.23;;;1.20;;
769;SDS011;368;48.698;9.116;2023-03-18T03:11:18;3.07;;;2.00;;
769;SDS011;368;48.698;9.116;2023-03-18T03:13:45;1.70;;;1.57;;
769;SDS011;368;48.698;9.116;2023-03-18T03:16:12;2.53;;;1.50;;
769;SDS011;368;48.698;9.116;2023-03-18T03:18:41;4.60;;;1.53;;
769;SDS011;368;48.698;9.116;2023-03-18T03:21:10;3.63;;;2.03;;
769;SDS011;368;48.698;9.116;2023-03-18T03:23:38;3.30;;;1.50;;
769;SDS011;368;48.698;9.116;2023-03-18T03:26:06;1.73;;;1.57;;
769;SDS011;368;48.698;9.116;2023-03-18T03:28:33;1.83;;;1.27;;
769;SDS011;368;48.698;9.116;2023-03-18T03:31:00;1.63;;;1.30;;
769;SDS011;368;48.698;9.116;2023-03-18T03:33:27;3.43;;;1.50;;
769;SDS011;368;48.698;9.116;2023-03-18T03:35:54;2.37;;;1.70;;
769;SDS011;368;48.698;9.116;2023-03-18T03:38:23;2.40;;;1.47;;
769;SDS011;368;48.698;9.116;2023-03-18T03:40:51;3.07;;;1.57;;
769;SDS011;368;48.698;9.116;2023-03-18T03:43:18;2.17;;;1.57;;
769;SDS011;368;48.698;9.116;2023-03-18T03:45:45;2.90;;;1.50;;
769;SDS011;368;48.698;9.116;2023-03-18T03:48:13;2.70;;;1.80;;
769;SDS011;368;48.698;9.116;2023-03-18T03:50:39;3.10;;;2.17;;
769;SDS011;368;48.698;9.116;2023-03-18T03:53:06;3.43;;;1.80;;
769;SDS011;368;48.698;9.116;2023-03-18T03:55:35;2.20;;;2.00;;
769;SDS011;368;48.698;9.116;2023-03-18T03:58:02;2.20;;;1.60;;
769;SDS011;368;48.698;9.116;2023-03-18T04:00:29;2.27;;;1.70;;
769;SDS011;368;48.698;9.116;2023-03-18T04:02:57;3.77;;;2.37;;
769;SDS011;368;48.698;9.116;2023-03-18T04:05:24;4.60;;;2.43;;
769;SDS011;368;48.698;9.116;2023-03-18T04:07:52;2.40;;;1.77;;
769;SDS011;368;48.698;9.116;2023-03-18T04:10:19;2.33;;;2.10;;
769;SDS011;368;48.698;9.116;2023-03-18T04:12:49;2.53;;;1.90;;
769;SDS011;368;48.698;9.116;2023-03-18T04:15:16;3.90;;;2.47;;
769;SDS011;368;48.698;9.116;2023-03-18T04:17:45;2.73;;;2.37;;
769;SDS011;368;48.698;9.116;2023-03-18T04:20:13;3.50;;;2.23;;
769;SDS011;368;48.698;9.116;2023-03-18T04:22:41;2.33;;;2.13;;
769;SDS011;368;48.698;9.116;2023-03-18T04:25:09;4.80;;;2.20;;
769;SDS011;368;48.698;9.116;2023-03-18T04:27:36;3.40;;;2.50;;
769;SDS011;368;48.698;9.116;2023-03-18T04:30:06;4.03;;;2.43;;
769;SDS011;368;48.698;9.116;2023-03-18T04:32:35;2.53;;;1.80;;
769;SDS011;368;48.698;9.116;2023-03-18T04:35:02;3.10;;;1.53;;
769;SDS011;368;48.698;9.116;2023-03-18T04:37:29;1.87;;;1.77;;
769;SDS011;368;48.698;9.116;2023-03-18T04:39:58;3.33;;;1.77;;
769;SDS011;368;48.698;9.116;2023-03-18T04:42:25;2.63;;;1.77;;
769;SDS011;368;48.698;9.116;2023-03-18T04:44:51;2.00;;;1.70;;
769;SDS011;368;48.698;9.116;2023-03-18T04:47:20;3.60;;;1.80;;
769;SDS011;368;48.698;9.116;2023-03-18T04:49:46;1.60;;;1.50;;
769;SDS011;368;48.698;9.116;2023-03-18T04:52:13;2.50;;;1.30;;
769;SDS011;368;48.698;9.116;2023-03-18T04:54:40;2.30;;;1.30;;
769;SDS011;368;48.698;9.116;2023-03-18T04:57:07;2.47;;;1.53;;
769;SDS011;368;48.698;9.116;2023-03-18T04:59:35;2.80;;;1.57;;
769;SDS011;368;48.698;9.116;2023-03-18T05:02:02;2.40;;;1.53;;
769;SDS011;368;48.698;9.116;2023-03-18T05:04:30;3.27;;;1.63;;
769;SDS011;368;48.698;9.116;2023-03-18T05:06:57;3.07;;;1.53;;
769;SDS011;368;48.698;9.116;2023-03-18T05:09:24;4.00;;;1.73;;
769;SDS011;368;48.698;9.116;2023-03-18T05:11:51;2.10;;;1.53;;
769;SDS011;368;48.698;9.116;2023-03-18T05:14:18;4.27;;;1.63;;
769;SDS011;368;48.698;9.116;2023-03-18T05:16:45;2.90;;;1.70;;
769;SDS011;368;48.698;9.116;2023-03-18T05:19:12;3.13;;;1.93;;
769;SDS011;368;48.698;9.116;2023-03-18T05:21:41;1.97;;;1.50;;
769;SDS011;368;48.698;9.116;2023-03-18T05:24:07;3.60;;;1.70;;
769;SDS011;368;48.698;9.116;2023-03-18T05:26:34;1.50;;;1.33;;
769;SDS011;368;48.698;9.116;2023-03-18T05:29:02;2.80;;;1.93;;
769;SDS011;368;48.698;9.116;2023-03-18T05:31:29;4.63;;;1.97;;
769;SDS011;368;48.698;9.116;2023-03-18T05:33:56;4.87;;;1.63;;
769;SDS011;368;48.698;9.116;2023-03-18T05:36:24;4.10;;;2.10;;
769;SDS011;368;48.698;9.116;2023-03-18T05:38:52;3.27;;;2.00;;
769;SDS011;368;48.698;9.116;2023-03-18T05:41:19;2.03;;;1.73;;
769;SDS011;368;48.698;9.116;2023-03-18T05:43:46;3.17;;;1.77;;
769;SDS011;368;48.698;9.116;2023-03-18T05:46:13;3.00;;;2.00;;
769;SDS011;368;48.698;9.116;2023-03-18T05:48:39;2.00;;;1.90;;
769;SDS011;368;48.698;9.116;2023-03-18T05:51:07;2.37;;;1.83;;
769;SDS011;368;48.698;9.116;2023-03-18T05:53:34;5.90;;;2.30;;
769;SDS011;368;48.698;9.116;2023-03-18T05:56:02;2.40;;;1.90;;
769;SDS011;368;48.698;9.116;2023-03-18T05:58:29;2.97;;;1.90;;
769;SDS011;368;48.698;9.116;2023-03-18T06:00:56;3.80;;;1.47;;
769;SDS011;368;48.698;9.116;2023-03-18T06:03:27;1.73;;;1.63;;
769;SDS011;368;48.698;9.116;2023-03-18T06:05:54;3.87;;;2.43;;
769;SDS011;368;48.698;9.116;2023-03-18T06:08:20;5.00;;;3.50;;
769;SDS011;368;48.698;9.116;2023-03-18T06:10:47;6.83;;;3.17;;
769;SDS011;368;48.698;9.116;2023-03-18T06:13:15;3.83;;;2.10;;
769;SDS011;368;48.698;9.116;2023-03-18T06:15:42;3.40;;;2.07;;
769;SDS011;368;48.698;9.116;2023-03-18T06:18:10;2.20;;;1.73;;
769;SDS011;368;48.698;9.116;2023-03-18T06:20:39;2.87;;;1.50;;
769;SDS011;368;48.698;9.116;2023-03-18T06:23:06;1.90;;;1.50;;
769;SDS011;368;48.698;9.116;2023-03-18T06:25:34;3.20;;;2.47;;
769;SDS011;368;48.698;9.116;2023-03-18T06:28:00;2.97;;;2.13;;
769;SDS011;368;48.698;9.116;2023-03-18T06:30:29;4.97;;;2.27;;
769;SDS011;368;48.698;9.116;2023-03-18T06:32:56;2.47;;;1.53;;
769;SDS011;368;48.698;9.116;2023-03-18T06:35:23;3.00;;;1.90;;
769;SDS011;368;48.698;9.116;2023-03-18T06:37:50;2.43;;;1.63;;
769;SDS011;368;48.698;9.116;2023-03-18T06:40:18;5.37;;;1.80;;
769;SDS011;368;48.698;9.116;2023-03-18T06:42:46;3.90;;;2.03;;
769;SDS011;368;48.698;9.116;2023-03-18T06:45:13;2.33;;;1.80;;
769;SDS011;368;48.698;9.116;2023-03-18T06:47:42;1.93;;;1.73;;
769;SDS011;368;48.698;9.116;2023-03-18T06:50:10;1.90;;;1.63;;
769;SDS011;368;48.698;9.116;2023-03-18T06:52:39;2.30;;;2.07;;
769;SDS011;368;48.698;9.116;2023-03-18T06:55:06;2.73;;;1.63;;
769;SDS011;368;48.698;9.116;2023-03-18T06:57:34;3.87;;;1.73;;
769;SDS011;368;48.698;9.116;2023-03-18T07:00:01;2.67;;;2.23;;
769;SDS011;368;48.698;9.116;2023-03-18T07:02:29;1.70;;;1.60;;
769;SDS011;368;48.698;9.116;2023-03-18T07:04:57;4.60;;;1.90;;
769;SDS011;368;48.698;9.116;2023-03-18T07:07:25;2.67;;;1.80;;
769;SDS011;368;48.698;9.116;2023-03-18T07:09:53;1.70;;;1.60;;
769;SDS011;368;48.698;9.116;2023-03-18T07:12:19;2.13;;;1.67;;
769;SDS011;368;48.698;9.116;2023-03-18T07:14:46;3.80;;;1.57;;
769;SDS011;368;48.698;9.116;2023-03-18T07:17:13;2.70;;;1.80;;
769;SDS011;368;48.698;9.116;2023-03-18T07:19:40;2.40;;;2.20;;
769;SDS011;368;48.698;9.116;2023-03-18T07:22:08;1.93;;;1.57;;
769;SDS011;368;48.698;9.116;2023-03-18T07:24:35;2.77;;;1.97;;
769;SDS011;368;48.698;9.116;2023-03-18T07:27:03;2.70;;;1.40;;
769;SDS011;368;48.698;9.116;2023-03-18T07:29:30;2.60;;;1.47;;
769;SDS011;368;48.698;9.116;2023-03-18T07:31:58;4.43;;;2.40;;
769;SDS011;368;48.698;9.116;2023-03-18T07:34:26;2.47;;;1.47;;
769;SDS011;368;48.698;9.116;2023-03-18T07:36:53;2.43;;;1.70;;
769;SDS011;368;48.698;9.116;2023-03-18T07:39:22;2.10;;;1.30;;
769;SDS011;368;48.698;9.116;2023-03-18T07:41:48;2.67;;;1.70;;
769;SDS011;368;48.698;9.116;2023-03-18T07:44:15;1.93;;;1.73;;
769;SDS011;368;48.698;9.116;2023-03-18T07:46:42;2.17;;;1.40;;
769;SDS011;368;48.698;9.116;2023-03-18T07:49:10;4.67;;;2.13;;
769;SDS011;368;48.698;9.116;2023-03-18T07:51:36;4.07;;;1.97;;
769;SDS011;368;48.698;9.116;2023-03-18T07:54:03;3.47;;;2.00;;
769;SDS011;368;48.698;9.116;2023-03-18T07:56:32;2.50;;;1.50;;
769;SDS011;368;48.698;9.116;2023-03-18T07:58:58;6.07;;;2.00;;
769;SDS011;368;48.698;9.116;2023-03-18T08:01:26;3.80;;;2.00;;
769;SDS011;368;48.698;9.116;2023-03-18T08:03:53;1.70;;;1.57;;
769;SDS011;368;48.698;9.116;2023-03-18T08:06:19;2.77;;;1.60;;
769;SDS011;368;48.698;9.116;2023-03-18T08:08:46;4.13;;;1.50;;
769;SDS011;368;48.698;9.116;2023-03-18T08:11:14;2.17;;;1.50;;
769;SDS011;368;48.698;9.116;2023-03-18T08:13:42;2.23;;;1.60;;
769;SDS011;368;48.698;9.116;2023-03-18T08:16:09;2.70;;;1.57;;
769;SDS011;368;48.698;9.116;2023-03-18T08:18:36;3.07;;;1.43;;
769;SDS011;368;48.698;9.116;2023-03-18T08:21:03;4.10;;;2.00;;
769;SDS011;368;48.698;9.116;2023-03-18T08:23:31;3.50;;;1.40;;
769;SDS011;368;48.698;9.116;2023-03-18T08:25:58;4.70;;;1.50;;
769;SDS011;368;48.698;9.116;2023-03-18T08:28:25;2.47;;;1.30;;
769;SDS011;368;48.698;9.116;2023-03-18T08:30:54;2.73;;;1.50;;
769;SDS011;368;48.698;9.116;2023-03-18T08:33:22;6.23;;;1.43;;
769;SDS011;368;48.698;9.116;2023-03-18T08:35:49;1.73;;;1.30;;
769;SDS011;368;48.698;9.116;2023-03-18T08:38:16;1.60;;;1.27;;
769;SDS011;368;48.698;9.116;2023-03-18T08:40:43;2.10;;;1.40;;
769;SDS011;368;48.698;9.116;2023-03-18T08:43:11;3.93;;;1.30;;
769;SDS011;368;48.698;9.116;2023-03-18T08:45:38;2.57;;;1.63;;
769;SDS011;368;48.698;9.116;2023-03-18T08:48:06;2.10;;;1.20;;
769;SDS011;368;48.698;9.116;2023-03-18T08:50:34;4.63;;;1.50;;
769;SDS011;368;48.698;9.116;2023-03-18T08:53:02;2.83;;;1.40;;
769;SDS011;368;48.698;9.116;2023-03-18T08:55:30;2.90;;;1.00;;
769;SDS011;368;48.698;9.116;2023-03-18T08:57:58;2.50;;;1.10;;
769;SDS011;368;48.698;9.116;2023-03-18T09:00:25;1.77;;;1.30;;
769;SDS011;368;48.698;9.116;2023-03-18T09:02:53;2.90;;;1.40;;
769;SDS011;368;48.698;9.116;2023-03-18T09:05:22;1.50;;;1.23;;
769;SDS011;368;48.698;9.116;2023-03-18T09:07:49;2.20;;;1.30;;
769;SDS011;368;48.698;9.116;2023-03-18T09:10:17;1.33;;;1.13;;
769;SDS011;368;48.698;9.116;2023-03-18T09:12:46;1.97;;;1.20;;
769;SDS011;368;48.698;9.116;2023-03-18T09:15:14;1.87;;;1.30;;
769;SDS011;368;48.698;9.116;2023-03-18T09:17:42;4.50;;;1.40;;
769;SDS011;368;48.698;9.116;2023-03-18T09:20:10;4.10;;;1.33;;
769;SDS011;368;48.698;9.116;2023-03-18T09:22:41;1.57;;;1.03;;
769;SDS011;368;48.698;9.116;2023-03-18T09:25:09;1.70;;;1.07;;
769;SDS011;368;48.698;9.116;2023-03-18T09:27:36;2.23;;;1.10;;
769;SDS011;368;48.698;9.116;2023-03-18T09:30:03;1.20;;;1.03;;
769;SDS011;368;48.698;9.116;2023-03-18T09:32:30;2.30;;;1.03;;
769;SDS011;368;48.698;9.116;2023-03-18T09:34:57;1.73;;;1.07;;
769;SDS011;368;48.698;9.116;2023-03-18T09:37:24;2.57;;;1.33;;
769;SDS011;368;48.698;9.116;2023-03-18T09:39:53;2.00;;;1.23;;
769;SDS011;368;48.698;9.116;2023-03-18T09:42:24;2.40;;;1.00;;
769;SDS011;368;48.698;9.116;2023-03-18T09:45:03;2.80;;;1.30;;
769;SDS011;368;48.698;9.116;2023-03-18T09:47:41;1.77;;;1.30;;
769;SDS011;368;48.698;9.116;2023-03-18T09:50:25;2.60;;;1.50;;
769;SDS011;368;48.698;9.116;2023-03-18T09:53:04;2.97;;;0.93;;
769;SDS011;368;48.698;9.116;2023-03-18T09:55:40;2.43;;;1.20;;
769;SDS011;368;48.698;9.116;2023-03-18T09:58:14;3.40;;;1.40;;
769;SDS011;368;48.698;9.116;2023-03-18T10:00:45;2.23;;;1.10;;
769;SDS011;368;48.698;9.116;2023-03-18T10:03:13;1.33;;;1.00;;
769;SDS011;368;48.698;9.116;2023-03-18T10:05:46;3.57;;;1.10;;
769;SDS011;368;48.698;9.116;2023-03-18T10:08:18;4.03;;;1.80;;
769;SDS011;368;48.698;9.116;2023-03-18T10:10:50;1.77;;;1.10;;
769;SDS011;368;48.698;9.116;2023-03-18T10:13:18;2.50;;;1.30;;
769;SDS011;368;48.698;9.116;2023-03-18T10:15:51;1.50;;;0.90;;
769;SDS011;368;48.698;9.116;2023-03-18T10:18:22;1.37;;;0.90;;
769;SDS011;368;48.698;9.116;2023-03-18T10:20:56;2.90;;;1.20;;
769;SDS011;368;48.698;9.116;2023-03-18T10:23:34;2.13;;;1.00;;
769;SDS011;368;48.698;9.116;2023-03-18T10:26:11;2.30;;;1.17;;
769;SDS011;368;48.698;9.116;2023-03-18T10:28:57;2.87;;;1.43;;
769;SDS011;368;48.698;9.116;2023-03-18T10:31:46;1.37;;;0.90;;
769;SDS011;368;48.698;9.116;2023-03-18T10:34:26;2.53;;;1.20;;
769;SDS011;368;48.698;9.116;2023-03-18T10:37:00;3.63;;;1.33;;
769;SDS011;368;48.698;9.116;2023-03-18T10:39:31;2.17;;;1.20;;
769;SDS011;368;48.698;9.116;2023-03-18T10:42:09;2.40;;;1.00;;
769;SDS011;368;48.698;9.116;2023-03-18T10:44:44;1.50;;;0.77;;
769;SDS011;368;48.698;9.116;2023-03-18T10:47:14;2.47;;;1.20;;
769;SDS011;368;48.698;9.116;2023-03-18T10:49:45;1.27;;;0.87;;
769;SDS011;368;48.698;9.116;2023-03-18T10:52:18;1.70;;;0.90;;
769;SDS011;368;48.698;9.116;2023-03-18T10:54:56;1.63;;;1.03;;
769;SDS011;368;48.698;9.116;2023-03-18T10:57:25;2.40;;;1.33;;
769;SDS011;368;48.698;9.116;2023-03-18T10:59:52;1.10;;;0.80;;
769;SDS011;368;48.698;9.116;2023-03-18T11:02:21;2.03;;;1.13;;
769;SDS011;368;48.698;9.116;2023-03-18T11:04:56;2.00;;;1.27;;
769;SDS011;368;48.698;9.116;2023-03-18T11:07:28;1.40;;;0.83;;
769;SDS011;368;48.698;9.116;2023-03-18T11:10:08;2.70;;;1.13;;
769;SDS011;368;48.698;9.116;2023-03-18T11:12:38;2.70;;;1.20;;
769;SDS011;368;48.698;9.116;2023-03-18T11:15:09;3.83;;;1.30;;
769;SDS011;368;48.698;9.116;2023-03-18T11:17:36;2.00;;;1.80;;
769;SDS011;368;48.698;9.116;2023-03-18T11:20:05;3.27;;;1.40;;
769;SDS011;368;48.698;9.116;2023-03-18T11:22:46;4.40;;;1.80;;
769;SDS011;368;48.698;9.116;2023-03-18T11:25:16;1.73;;;1.20;;
769;SDS011;368;48.698;9.116;2023-03-18T11:27:47;3.17;;;1.10;;
769;SDS011;368;48.698;9.116;2023-03-18T11:30:17;3.30;;;1.13;;
769;SDS011;368;48.698;9.116;2023-03-18T11:32:53;1.43;;;1.33;;
769;SDS011;368;48.698;9.116;2023-03-18T11:35:23;3.60;;;1.30;;
769;SDS011;368;48.698;9.116;2023-03-18T11:37:54;1.87;;;1.10;;
769;SDS011;368;48.698;9.116;2023-03-18T11:40:25;2.40;;;1.37;;
769;SDS011;368;48.698;9.116;2023-03-18T11:42:55;4.77;;;2.07;;
769;SDS011;368;48.698;9.116;2023-03-18T11:45:31;1.40;;;1.30;;
769;SDS011;368;48.698;9.116;2023-03-18T11:48:11;2.70;;;1.33;;
769;SDS011;368;48.698;9.116;2023-03-18T11:50:43;1.77;;;1.27;;
769;SDS011;368;48.698;9.116;2023-03-18T11:53:23;1.50;;;0.80;;
769;SDS011;368;48.698;9.116;2023-03-18T11:55:56;1.87;;;1.27;;
769;SDS011;368;48.698;9.116;2023-03-18T11:58:44;2.70;;;1.47;;
769;SDS011;368;48.698;9.116;2023-03-18T12:01:25;2.00;;;1.40;;
769;SDS011;368;48.698;9.116;2023-03-18T12:04:02;3.50;;;2.00;;
769;SDS011;368;48.698;9.116;2023-03-18T12:06:43;1.30;;;1.00;;
769;SDS011;368;48.698;9.116;2023-03-18T12:09:24;2.20;;;1.00;;
769;SDS011;368;48.698;9.116;2023-03-18T12:11:59;2.60;;;1.53;;
769;SDS011;368;48.698;9.116;2023-03-18T12:14:39;1.83;;;1.00;;
769;SDS011;368;48.698;9.116;2023-03-18T12:17:18;2.30;;;1.20;;
769;SDS011;368;48.698;9.116;2023-03-18T12:19:59;3.43;;;1.50;;
769;SDS011;368;48.698;9.116;2023-03-18T12:22:46;2.63;;;1.27;;
769;SDS011;368;48.698;9.116;2023-03-18T12:25:23;1.90;;;1.30;;
769;SDS011;368;48.698;9.116;2023-03-18T12:28:02;1.93;;;1.10;;
769;SDS011;368;48.698;9.116;2023-03-18T12:30:44;1.83;;;0.90;;
769;SDS011;368;48.698;9.116;2023-03-18T12:33:23;2.00;;;1.30;;
769;SDS011;368;48.698;9.116;2023-03-18T12:36:00;2.93;;;1.30;;
769;SDS011;368;48.698;9.116;2023-03-18T12:38:53;3.20;;;1.10;;
769;SDS011;368;48.698;9.116;2023-03-18T12:41:31;2.07;;;1.13;;
769;SDS011;368;48.698;9.116;2023-03-18T12:44:07;4.13;;;1.17;;
769;SDS011;368;48.698;9.116;2023-03-18T12:46:46;1.80;;;1.23;;
769;SDS011;368;48.698;9.116;2023-03-18T12:49:18;2.57;;;1.17;;
769;SDS011;368;48.698;9.116;2023-03-18T12:51:49;1.87;;;0.90;;
769;SDS011;368;48.698;9.116;2023-03-18T12:54:24;2.93;;;1.30;;
769;SDS011;368;48.698;9.116;2023-03-18T12:56:54;1.93;;;1.10;;
769;SDS011;368;48.698;9.116;2023-03-18T12:59:26;1.40;;;0.90;;
769;SDS011;368;48.698;9.116;2023-03-18T13:02:06;2.13;;;1.10;;
769;SDS011;368;48.698;9.116;2023-03-18T13:04:58;1.93;;;0.93;;
769;SDS011;368;48.698;9.116;2023-03-18T13:07:31;2.77;;;1.50;;
769;SDS011;368;48.698;9.116;2023-03-18T13:10:06;1.87;;;1.20;;
769;SDS011;368;48.698;9.116;2023-03-18T13:12:44;3.03;;;1.60;;
769;SDS011;368;48.698;9.116;2023-03-18T13:15:16;1.63;;;1.10;;
769;SDS011;368;48.698;9.116;2023-03-18T13:17:53;1.93;;;0.80;;
769;SDS011;368;48.698;9.116;2023-03-18T13:20:24;1.40;;;1.10;;
769;SDS011;368;48.698;9.116;2023-03-18T13:25:43;1.13;;;1.03;;
769;SDS011;368;48.698;9.116;2023-03-18T13:31:18;1.93;;;0.97;;
769;SDS011;368;48.698;9.116;2023-03-18T13:33:59;2.13;;;1.00;;
769;SDS011;368;48.698;9.116;2023-03-18T13:36:52;2.33;;;1.13;;
769;SDS011;368;48.698;9.116;2023-03-18T13:39:37;1.60;;;1.37;;
769;SDS011;368;48.698;9.116;2023-03-18T13:42:24;1.63;;;1.30;;
769;SDS011;368;48.698;9.116;2023-03-18T13:45:00;1.47;;;1.07;;
769;SDS011;368;48.698;9.116;2023-03-18T13:47:32;1.77;;;1.27;;
769;SDS011;368;48.698;9.116;2023-03-18T13:50:04;2.00;;;1.43;;
769;SDS011;368;48.698;9.116;2023-03-18T13:52:33;2.70;;;1.30;;
769;SDS011;368;48.698;9.116;2023-03-18T13:55:06;2.00;;;1.00;;
769;SDS011;368;48.698;9.116;2023-03-18T13:57:46;1.67;;;1.33;;
769;SDS011;368;48.698;9.116;2023-03-18T14:03:05;2.50;;;1.13;;
769;SDS011;368;48.698;9.116;2023-03-18T14:05:47;3.00;;;1.27;;
769;SDS011;368;48.698;9.116;2023-03-18T14:11:36;2.40;;;1.20;;
769;SDS011;368;48.698;9.116;2023-03-18T14:17:21;2.93;;;1.30;;
769;SDS011;368;48.698;9.116;2023-03-18T14:19:53;1.60;;;1.30;;
769;SDS011;368;48.698;9.116;2023-03-18T14:22:25;3.17;;;1.20;;
769;SDS011;368;48.698;9.116;2023-03-18T14:27:52;3.73;;;2.00;;
769;SDS011;368;48.698;9.116;2023-03-18T14:30:38;1.40;;;1.00;;
769;SDS011;368;48.698;9.116;2023-03-18T14:33:30;2.53;;;1.47;;
769;SDS011;368;48.698;9.116;2023-03-18T14:36:02;3.50;;;1.20;;
769;SDS011;368;48.698;9.116;2023-03-18T14:38:36;2.17;;;1.30;;
769;SDS011;368;48.698;9.116;2023-03-18T14:41:12;1.23;;;1.03;;
769;SDS011;368;48.698;9.116;2023-03-18T14:43:50;1.80;;;1.10;;
769;SDS011;368;48.698;9.116;2023-03-18T14:46:23;1.47;;;1.23;;
769;SDS011;368;48.698;9.116;2023-03-18T14:48:57;2.07;;;1.40;;
769;SDS011;368;48.698;9.116;2023-03-18T14:51:25;2.00;;;1.80;;
769;SDS011;368;48.698;9.116;2023-03-18T14:53:57;5.00;;;1.73;;
769;SDS011;368;48.698;9.116;2023-03-18T14:56:34;1.87;;;1.40;;
769;SDS011;368;48.698;9.116;2023-03-18T14:59:04;2.30;;;1.50;;
769;SDS011;368;48.698;9.116;2023-03-18T15:01:33;2.10;;;1.33;;
769;SDS011;368;48.698;9.116;2023-03-18T15:04:02;1.67;;;1.20;;
769;SDS011;368;48.698;9.116;2023-03-18T15:06:31;1.20;;;1.00;;
769;SDS011;368;48.698;9.116;2023-03-18T15:09:00;1.73;;;1.13;;
769;SDS011;368;48.698;9.116;2023-03-18T15:11:35;1.57;;;1.10;;
769;SDS011;368;48.698;9.116;2023-03-18T15:14:08;2.50;;;1.50;;
769;SDS011;368;48.698;9.116;2023-03-18T15:16:37;1.90;;;1.30;;
769;SDS011;368;48.698;9.116;2023-03-18T15:19:04;1.90;;;1.37;;
769;SDS011;368;48.698;9.116;2023-03-18T15:21:31;1.23;;;1.00;;
769;SDS011;368;48.698;9.116;2023-03-18T15:24:02;7.80;;;1.40;;
769;SDS011;368;48.698;9.116;2023-03-18T15:26:32;1.70;;;1.10;;
769;SDS011;368;48.698;9.116;2023-03-18T15:29:16;1.30;;;1.20;;
769;SDS011;368;48.698;9.116;2023-03-18T15:31:49;1.70;;;1.23;;
769;SDS011;368;48.698;9.116;2023-03-18T15:34:18;3.40;;;1.17;;
769;SDS011;368;48.698;9.116;2023-03-18T15:36:50;2.60;;;1.57;;
769;SDS011;368;48.698;9.116;2023-03-18T15:39:20;2.33;;;1.60;;
769;SDS011;368;48.698;9.116;2023-03-18T15:41:54;1.77;;;1.00;;
769;SDS011;368;48.698;9.116;2023-03-18T15:44:23;2.20;;;1.07;;
769;SDS011;368;48.698;9.116;2023-03-18T15:46:52;1.80;;;1.17;;
769;SDS011;368;48.698;9.116;2023-03-18T15:49:24;1.97;;;1.27;;
769;SDS011;368;48.698;9.116;2023-03-18T15:51:56;1.70;;;1.27;;
769;SDS011;368;48.698;9.116;2023-03-18T15:54:26;2.37;;;1.47;;
769;SDS011;368;48.698;9.116;2023-03-18T15:56:55;1.87;;;1.20;;
769;SDS011;368;48.698;9.116;2023-03-18T15:59:25;2.33;;;1.10;;
769;SDS011;368;48.698;9.116;2023-03-18T16:01:53;1.60;;;1.37;;
769;SDS011;368;48.698;9.116;2023-03-18T16:04:20;3.80;;;1.80;;
769;SDS011;368;48.698;9.116;2023-03-18T16:06:48;4.00;;;1.70;;
769;SDS011;368;48.698;9.116;2023-03-18T16:09:17;3.97;;;2.17;;
769;SDS011;368;48.698;9.116;2023-03-18T16:11:47;5.13;;;1.90;;
769;SDS011;368;48.698;9.116;2023-03-18T16:14:17;3.03;;;2.00;;
769;SDS011;368;48.698;9.116;2023-03-18T16:16:46;3.00;;;2.00;;
769;SDS011;368;48.698;9.116;2023-03-18T16:19:14;2.77;;;1.70;;
769;SDS011;368;48.698;9.116;2023-03-18T16:21:48;2.90;;;2.10;;
769;SDS011;368;48.698;9.116;2023-03-18T16:24:16;3.63;;;2.60;;